createdAt,value
2018-09-30T00:01:52.769Z,95522.25
2018-09-30T00:04:21.315Z,95516.42
2018-09-30T00:06:49.684Z,95512.93
2018-09-30T00:09:18.773Z,95514.26
2018-09-30T00:11:47.160Z,95509.52
2018-09-30T00:14:15.627Z,95507.21
2018-09-30T00:16:44.144Z,95499.08
2018-09-30T00:19:12.547Z,95496.33
2018-09-30T00:21:40.887Z,95491.89
2018-09-30T00:24:14.455Z,95489.67
2018-09-30T00:26:48.004Z,95483.09
2018-09-30T00:29:16.369Z,95482.66
2018-09-30T00:31:44.729Z,95478.72
2018-09-30T00:34:18.300Z,95482.82
2018-09-30T00:36:46.716Z,95480.80
2018-09-30T00:39:15.124Z,95476.14
2018-09-30T00:41:43.495Z,95466.48
2018-09-30T00:44:11.974Z,95470.67
2018-09-30T00:46:40.283Z,95463.67
2018-09-30T00:49:08.619Z,95464.74
2018-09-30T00:51:36.908Z,95459.44
2018-09-30T00:54:05.235Z,95454.98
2018-09-30T00:56:33.680Z,95452.31
2018-09-30T00:59:02.068Z,95450.43
2018-09-30T01:01:30.409Z,95447.55
2018-09-30T01:03:58.797Z,95450.98
2018-09-30T01:06:27.123Z,95449.27
2018-09-30T01:08:55.616Z,95444.75
2018-09-30T01:11:23.924Z,95435.75
2018-09-30T01:13:52.200Z,95431.55
2018-09-30T01:16:20.490Z,95435.52
2018-09-30T01:18:48.794Z,95432.66
2018-09-30T01:21:17.116Z,95426.73
2018-09-30T01:23:45.419Z,95428.25
2018-09-30T01:26:13.787Z,95425.91
2018-09-30T01:28:42.159Z,95416.33
2018-09-30T01:31:10.504Z,95413.58
2018-09-30T01:33:38.857Z,95421.35
2018-09-30T01:36:07.224Z,95416.48
2018-09-30T01:38:35.612Z,95403.77
2018-09-30T01:41:04.048Z,95409.48
2018-09-30T01:43:32.416Z,95412.11
2018-09-30T01:46:00.778Z,95406.22
2018-09-30T01:48:29.140Z,95403.09
2018-09-30T01:50:57.503Z,95396.75
2018-09-30T01:53:25.792Z,95389.80
2018-09-30T01:55:54.117Z,95395.45
2018-09-30T01:58:22.406Z,95393.33
2018-09-30T02:00:50.749Z,95386.45
2018-09-30T02:03:19.208Z,95379.80
2018-09-30T02:05:47.499Z,95369.24
2018-09-30T02:08:15.943Z,95369.52
2018-09-30T02:10:44.351Z,95367.22
2018-09-30T02:13:12.692Z,95362.17
2018-09-30T02:15:41.133Z,95359.36
2018-09-30T02:18:09.491Z,95355.72
2018-09-30T02:20:37.835Z,95350.56
2018-09-30T02:23:06.240Z,95346.27
2018-09-30T02:25:34.567Z,95343.83
2018-09-30T02:28:02.987Z,95341.39
2018-09-30T02:30:31.346Z,95341.50
2018-09-30T02:32:59.691Z,95332.98
2018-09-30T02:35:28.036Z,95337.05
2018-09-30T02:37:56.371Z,95330.90
2018-09-30T02:40:24.734Z,95326.29
2018-09-30T02:42:53.055Z,95324.31
2018-09-30T02:45:21.396Z,95318.92
2018-09-30T02:47:49.669Z,95316.19
2018-09-30T02:50:17.973Z,95307.90
2018-09-30T02:52:46.284Z,95306.43
2018-09-30T02:55:14.580Z,95304.63
2018-09-30T02:57:42.901Z,95306.31
2018-09-30T03:00:29.812Z,95295.91
2018-09-30T03:02:58.173Z,95292.70
2018-09-30T03:05:26.571Z,95289.29
2018-09-30T03:08:00.401Z,95280.31
2018-09-30T03:10:28.772Z,95283.16
2018-09-30T03:12:57.096Z,95283.89
2018-09-30T03:15:25.452Z,95281.41
2018-09-30T03:17:53.833Z,95281.15
2018-09-30T03:20:22.183Z,95278.73
2018-09-30T03:22:50.588Z,95273.52
2018-09-30T03:25:18.981Z,95275.45
2018-09-30T03:27:47.355Z,95271.20
2018-09-30T03:30:15.723Z,95269.25
2018-09-30T03:32:44.104Z,95267.19
2018-09-30T03:35:12.479Z,95273.25
2018-09-30T03:37:40.816Z,95273.54
2018-09-30T03:40:09.147Z,95270.89
2018-09-30T03:42:37.490Z,95265.64
2018-09-30T03:45:05.822Z,95267.20
2018-09-30T03:47:34.157Z,95264.59
2018-09-30T03:50:02.504Z,95260.80
2018-09-30T03:52:30.855Z,95254.75
2018-09-30T03:54:59.518Z,95259.08
2018-09-30T03:57:27.864Z,95267.06
2018-09-30T03:59:56.209Z,95268.06
2018-09-30T04:02:24.544Z,95265.68
2018-09-30T04:04:52.878Z,95257.09
2018-09-30T04:07:21.263Z,95257.48
2018-09-30T04:09:49.646Z,95253.25
2018-09-30T04:12:17.981Z,95252.86
2018-09-30T04:14:46.300Z,95255.30
2018-09-30T04:17:14.781Z,95246.94
2018-09-30T04:19:43.056Z,95245.53
2018-09-30T04:22:11.332Z,95241.84
2018-09-30T04:24:39.640Z,95238.95
2018-09-30T04:27:07.932Z,95234.33
2018-09-30T04:29:36.245Z,95232.97
2018-09-30T04:32:04.590Z,95233.91
2018-09-30T04:34:32.930Z,95228.14
2018-09-30T04:37:01.212Z,95227.26
2018-09-30T04:39:29.514Z,95220.84
2018-09-30T04:41:57.792Z,95219.58
2018-09-30T04:44:26.071Z,95222.89
2018-09-30T04:46:54.512Z,95217.69
2018-09-30T04:49:22.886Z,95213.77
2018-09-30T04:51:51.220Z,95218.59
2018-09-30T04:54:19.569Z,95214.30
2018-09-30T04:56:47.901Z,95204.28
2018-09-30T04:59:16.289Z,95217.30
2018-09-30T05:01:44.580Z,95205.25
2018-09-30T05:04:12.875Z,95208.16
2018-09-30T05:06:41.227Z,95200.75
2018-09-30T05:09:09.726Z,95205.52
2018-09-30T05:11:38.004Z,95197.72
2018-09-30T05:14:06.287Z,95201.21
2018-09-30T05:16:34.671Z,95193.73
2018-09-30T05:19:02.896Z,95197.26
2018-09-30T05:21:31.187Z,95193.46
2018-09-30T05:23:59.488Z,95197.88
2018-09-30T05:26:27.949Z,95190.82
2018-09-30T05:28:56.280Z,95188.41
2018-09-30T05:31:24.676Z,95188.81
2018-09-30T05:33:53.008Z,95195.17
2018-09-30T05:36:21.397Z,95181.89
2018-09-30T05:38:49.793Z,95191.44
2018-09-30T05:41:18.158Z,95188.97
2018-09-30T05:43:46.551Z,95183.17
2018-09-30T05:46:14.903Z,95179.95
2018-09-30T05:48:43.241Z,95184.42
2018-09-30T05:51:11.579Z,95185.83
2018-09-30T05:53:39.908Z,95183.09
2018-09-30T05:56:08.235Z,95182.72
2018-09-30T05:58:36.570Z,95184.84
2018-09-30T06:01:04.909Z,95183.03
2018-09-30T06:03:33.261Z,95179.92
2018-09-30T06:06:01.569Z,95181.34
2018-09-30T06:08:30.072Z,95180.75
2018-09-30T06:10:58.376Z,95186.66
2018-09-30T06:13:26.720Z,95190.58
2018-09-30T06:15:55.045Z,95192.28
2018-09-30T06:18:23.424Z,95195.97
2018-09-30T06:20:51.808Z,95194.33
2018-09-30T06:23:20.232Z,95202.52
2018-09-30T06:25:48.575Z,95195.06
2018-09-30T06:28:16.948Z,95206.69
2018-09-30T06:30:45.299Z,95200.09
2018-09-30T06:33:13.661Z,95194.77
2018-09-30T06:35:42.095Z,95194.31
2018-09-30T06:38:10.436Z,95196.79
2018-09-30T06:40:38.776Z,95194.63
2018-09-30T06:43:07.157Z,95189.97
2018-09-30T06:45:35.584Z,95193.18
2018-09-30T06:48:03.828Z,95186.00
2018-09-30T06:50:32.611Z,95190.77
2018-09-30T06:53:01.052Z,95193.58
2018-09-30T06:55:29.347Z,95186.88
2018-09-30T06:57:57.704Z,95195.62
2018-09-30T07:00:26.032Z,95183.15
2018-09-30T07:02:54.411Z,95186.98
2018-09-30T07:05:22.844Z,95188.89
2018-09-30T07:07:51.222Z,95188.16
2018-09-30T07:10:19.544Z,95180.65
2018-09-30T07:12:47.846Z,95183.92
2018-09-30T07:15:16.185Z,95191.20
2018-09-30T07:17:44.475Z,95190.27
2018-09-30T07:20:12.809Z,95190.70
2018-09-30T07:22:41.245Z,95183.70
2018-09-30T07:25:09.456Z,95188.53
2018-09-30T07:27:37.751Z,95181.73
2018-09-30T07:30:06.164Z,95182.52
2018-09-30T07:32:34.508Z,95184.12
2018-09-30T07:35:02.857Z,95182.80
2018-09-30T07:37:31.139Z,95186.13
2018-09-30T07:39:59.480Z,95178.77
2018-09-30T07:42:27.767Z,95180.77
2018-09-30T07:44:56.072Z,95184.78
2018-09-30T07:47:24.368Z,95187.27
2018-09-30T07:49:52.719Z,95180.42
2018-09-30T07:52:21.007Z,95181.12
2018-09-30T07:54:49.312Z,95173.10
2018-09-30T07:57:17.631Z,95176.30
2018-09-30T07:59:45.960Z,95174.20
2018-09-30T08:02:14.337Z,95172.35
2018-09-30T08:04:42.668Z,95159.59
2018-09-30T08:07:11.008Z,95161.72
2018-09-30T08:09:39.380Z,95168.48
2018-09-30T08:12:07.704Z,95165.47
2018-09-30T08:14:36.018Z,95170.28
2018-09-30T08:17:04.387Z,95169.56
2018-09-30T08:19:32.684Z,95164.67
2018-09-30T08:22:01.048Z,95159.36
2018-09-30T08:24:29.443Z,95156.17
2018-09-30T08:26:57.757Z,95158.24
2018-09-30T08:29:26.085Z,95156.33
2018-09-30T08:31:54.437Z,95149.73
2018-09-30T08:34:22.769Z,95148.13
2018-09-30T08:36:51.095Z,95146.14
2018-09-30T08:39:19.457Z,95140.42
2018-09-30T08:41:47.775Z,95137.52
2018-09-30T08:44:16.175Z,95142.85
2018-09-30T08:46:44.566Z,95144.64
2018-09-30T08:49:19.453Z,95142.61
2018-09-30T08:51:47.734Z,95148.89
2018-09-30T08:54:16.073Z,95139.63
2018-09-30T08:56:44.420Z,95144.83
2018-09-30T08:59:12.780Z,95149.65
2018-09-30T09:01:41.131Z,95137.16
2018-09-30T09:04:09.480Z,95141.61
2018-09-30T09:06:37.825Z,95134.76
2018-09-30T09:09:09.373Z,95142.34
2018-09-30T09:11:37.719Z,95138.70
2018-09-30T09:14:06.116Z,95141.68
2018-09-30T09:16:34.463Z,95138.17
2018-09-30T09:19:02.791Z,95133.94
2018-09-30T09:21:31.121Z,95128.58
2018-09-30T09:23:59.448Z,95126.20
2018-09-30T09:26:27.769Z,95124.22
2018-09-30T09:28:56.107Z,95123.56
2018-09-30T09:31:24.487Z,95129.16
2018-09-30T09:33:52.823Z,95129.94
2018-09-30T09:36:21.184Z,95110.80
2018-09-30T09:38:49.532Z,95111.59
2018-09-30T09:41:17.908Z,95112.37
2018-09-30T09:43:46.332Z,95115.63
2018-09-30T09:46:14.684Z,95113.80
2018-09-30T09:48:42.999Z,95107.77
2018-09-30T09:51:12.353Z,95114.27
2018-09-30T09:53:40.664Z,95109.58
2018-09-30T09:56:08.975Z,95107.27
2018-09-30T09:58:37.332Z,95103.27
2018-09-30T10:01:06.194Z,95089.59
2018-09-30T10:03:34.488Z,95086.91
2018-09-30T10:06:02.809Z,95082.98
2018-09-30T10:08:31.121Z,95085.71
2018-09-30T10:10:59.512Z,95085.75
2018-09-30T10:13:27.940Z,95080.86
2018-09-30T10:15:56.413Z,95079.78
2018-09-30T10:18:24.952Z,95080.89
2018-09-30T10:20:53.393Z,95081.45
2018-09-30T10:23:21.861Z,95081.09
2018-09-30T10:25:50.378Z,95073.47
2018-09-30T10:28:18.839Z,95064.09
2018-09-30T10:30:47.252Z,95054.13
2018-09-30T10:33:15.744Z,95056.84
2018-09-30T10:35:44.151Z,95058.86
2018-09-30T10:38:12.603Z,95054.70
2018-09-30T10:40:41.075Z,95047.42
2018-09-30T10:43:09.481Z,95048.64
2018-09-30T10:45:37.866Z,95044.64
2018-09-30T10:48:06.510Z,95041.34
2018-09-30T10:50:34.899Z,95044.27
2018-09-30T10:53:03.276Z,95043.73
2018-09-30T10:55:31.648Z,95035.56
2018-09-30T10:58:00.089Z,95037.05
2018-09-30T11:00:28.539Z,95029.80
2018-09-30T11:02:56.924Z,95020.77
2018-09-30T11:05:25.416Z,95018.72
2018-09-30T11:07:53.835Z,95021.66
2018-09-30T11:10:22.449Z,95012.97
2018-09-30T11:12:50.848Z,95010.15
2018-09-30T11:15:20.061Z,95009.02
2018-09-30T11:17:48.494Z,94995.88
2018-09-30T11:20:17.072Z,94992.59
2018-09-30T11:22:45.568Z,94987.88
2018-09-30T11:25:14.281Z,94975.54
2018-09-30T11:27:42.700Z,94975.54
2018-09-30T11:30:11.137Z,94968.27
2018-09-30T11:32:39.523Z,94966.53
2018-09-30T11:35:07.937Z,94967.09
2018-09-30T11:37:36.380Z,94963.03
2018-09-30T11:40:05.220Z,94956.64
2018-09-30T11:42:33.715Z,94955.56
2018-09-30T11:45:02.181Z,94948.70
2018-09-30T11:47:30.589Z,94949.55
2018-09-30T11:49:58.987Z,94951.42
2018-09-30T11:52:27.450Z,94943.23
2018-09-30T11:54:55.881Z,94939.61
2018-09-30T11:57:24.352Z,94946.56
2018-09-30T11:59:52.768Z,94936.12
2018-09-30T12:02:21.173Z,94927.66
2018-09-30T12:04:49.573Z,94927.19
2018-09-30T12:07:17.997Z,94920.17
2018-09-30T12:09:46.433Z,94921.01
2018-09-30T12:12:14.950Z,94914.09
2018-09-30T12:14:43.390Z,94919.08
2018-09-30T12:17:11.920Z,94911.73
2018-09-30T12:19:40.382Z,94907.81
2018-09-30T12:22:08.845Z,94904.89
2018-09-30T12:24:37.376Z,94906.05
2018-09-30T12:27:05.854Z,94894.89
2018-09-30T12:29:34.384Z,94883.45
2018-09-30T12:32:02.790Z,94878.43
2018-09-30T12:34:31.165Z,94867.78
2018-09-30T12:36:59.664Z,94874.56
2018-09-30T12:39:28.237Z,94864.32
2018-09-30T12:41:56.631Z,94862.52
2018-09-30T12:44:25.124Z,94862.33
2018-09-30T12:46:53.553Z,94861.08
2018-09-30T12:49:21.941Z,94854.83
2018-09-30T12:51:50.372Z,94851.66
2018-09-30T12:54:18.860Z,94845.36
2018-09-30T12:56:47.292Z,94843.87
2018-09-30T12:59:15.761Z,94845.75
2018-09-30T13:01:44.209Z,94842.19
2018-09-30T13:04:12.725Z,94836.11
2018-09-30T13:06:41.140Z,94840.52
2018-09-30T13:09:10.228Z,94835.44
2018-09-30T13:11:38.807Z,94844.57
2018-09-30T13:14:07.508Z,94841.11
2018-09-30T13:16:36.021Z,94837.61
2018-09-30T13:19:04.464Z,94846.31
2018-09-30T13:21:32.937Z,94842.05
2018-09-30T13:24:01.404Z,94837.22
2018-09-30T13:26:29.851Z,94832.67
2018-09-30T13:28:58.349Z,94839.29
2018-09-30T13:31:26.755Z,94833.11
2018-09-30T13:33:55.300Z,94838.36
2018-09-30T13:36:23.720Z,94833.92
2018-09-30T13:38:52.119Z,94832.10
2018-09-30T13:41:20.645Z,94831.63
2018-09-30T13:43:49.127Z,94829.55
2018-09-30T13:46:17.679Z,94825.25
2018-09-30T13:48:46.032Z,94825.20
2018-09-30T13:51:14.629Z,94822.35
2018-09-30T13:53:42.983Z,94820.66
2018-09-30T13:56:11.452Z,94819.19
2018-09-30T13:58:39.802Z,94820.66
2018-09-30T14:01:08.284Z,94811.41
2018-09-30T14:03:36.664Z,94809.67
2018-09-30T14:06:05.092Z,94809.66
2018-09-30T14:08:33.460Z,94808.19
2018-09-30T14:11:01.904Z,94805.83
2018-09-30T14:13:30.280Z,94791.84
2018-09-30T14:15:58.801Z,94794.51
2018-09-30T14:18:27.289Z,94798.43
2018-09-30T14:20:55.784Z,94796.89
2018-09-30T14:23:24.185Z,94796.13
2018-09-30T14:25:52.515Z,94796.92
2018-09-30T14:28:20.929Z,94795.56
2018-09-30T14:30:49.539Z,94798.06
2018-09-30T14:33:18.002Z,94796.75
2018-09-30T14:35:46.735Z,94796.76
2018-09-30T14:38:15.397Z,94798.13
2018-09-30T14:40:43.988Z,94798.50
2018-09-30T14:43:12.470Z,94804.38
2018-09-30T14:45:40.969Z,94798.42
2018-09-30T14:48:09.655Z,94794.45
2018-09-30T14:50:38.071Z,94797.84
2018-09-30T14:53:06.646Z,94799.99
2018-09-30T14:55:35.091Z,94791.09
2018-09-30T14:58:03.526Z,94791.32
2018-09-30T15:00:32.108Z,94790.29
2018-09-30T15:03:00.636Z,94789.61
2018-09-30T15:05:29.133Z,94786.90
2018-09-30T15:07:57.564Z,94786.36
2018-09-30T15:10:26.223Z,94785.23
2018-09-30T15:12:54.571Z,94775.38
2018-09-30T15:15:23.177Z,94776.17
2018-09-30T15:17:51.627Z,94770.45
2018-09-30T15:20:20.141Z,94772.20
2018-09-30T15:22:48.556Z,94774.52
2018-09-30T15:25:17.060Z,94775.02
2018-09-30T15:27:45.508Z,94774.86
2018-09-30T15:30:14.030Z,94769.77
2018-09-30T15:32:42.490Z,94769.25
2018-09-30T15:35:10.951Z,94768.67
2018-09-30T15:37:39.413Z,94765.14
2018-09-30T15:40:07.907Z,94760.36
2018-09-30T15:42:36.340Z,94754.51
2018-09-30T15:45:04.764Z,94750.48
2018-09-30T15:47:33.330Z,94754.11
2018-09-30T15:50:01.784Z,94748.30
2018-09-30T15:52:30.932Z,94749.61
2018-09-30T15:54:59.249Z,94752.75
2018-09-30T15:57:27.568Z,94758.94
2018-09-30T15:59:56.041Z,94755.92
2018-09-30T16:02:24.419Z,94759.88
2018-09-30T16:04:52.885Z,94762.55
2018-09-30T16:07:21.376Z,94758.22
2018-09-30T16:09:49.948Z,94758.39
2018-09-30T16:12:18.543Z,94762.00
2018-09-30T16:14:46.953Z,94761.02
2018-09-30T16:17:15.389Z,94761.79
2018-09-30T16:19:43.856Z,94757.40
2018-09-30T16:22:12.323Z,94759.20
2018-09-30T16:24:40.867Z,94763.47
2018-09-30T16:27:09.485Z,94764.05
2018-09-30T16:29:37.893Z,94768.30
2018-09-30T16:32:06.308Z,94763.16
2018-09-30T16:34:34.724Z,94766.93
2018-09-30T16:37:03.164Z,94770.31
2018-09-30T16:39:31.761Z,94768.66
2018-09-30T16:42:00.173Z,94770.15
2018-09-30T16:44:28.621Z,94772.56
2018-09-30T16:46:57.089Z,94773.41
2018-09-30T16:49:25.567Z,94767.76
2018-09-30T16:51:53.978Z,94764.80
2018-09-30T16:54:22.422Z,94777.42
2018-09-30T16:56:50.926Z,94775.69
2018-09-30T16:59:19.363Z,94778.73
2018-09-30T17:01:47.855Z,94784.24
2018-09-30T17:04:16.435Z,94787.58
2018-09-30T17:06:45.201Z,94788.03
2018-09-30T17:09:13.705Z,94792.94
2018-09-30T17:11:42.403Z,94796.05
2018-09-30T17:14:10.892Z,94791.36
2018-09-30T17:17:16.129Z,94799.41
2018-09-30T17:19:44.560Z,94798.80
2018-09-30T17:22:13.416Z,94790.84
2018-09-30T17:24:41.908Z,94799.65
2018-09-30T17:27:10.705Z,94803.91
2018-09-30T17:29:39.263Z,94808.76
2018-09-30T17:32:08.065Z,94804.82
2018-09-30T17:34:36.565Z,94809.46
2018-09-30T17:37:05.118Z,94810.63
2018-09-30T17:39:34.600Z,94810.87
2018-09-30T17:42:03.104Z,94817.36
2018-09-30T17:44:31.536Z,94820.77
2018-09-30T17:46:59.977Z,94816.28
2018-09-30T17:49:28.381Z,94827.02
2018-09-30T17:51:58.928Z,94825.97
2018-09-30T17:54:27.368Z,94829.09
2018-09-30T17:56:56.345Z,94824.76
2018-09-30T17:59:24.831Z,94827.19
2018-09-30T18:01:53.257Z,94824.56
2018-09-30T18:04:21.693Z,94825.59
2018-09-30T18:06:50.188Z,94826.97
2018-09-30T18:09:18.622Z,94824.91
2018-09-30T18:11:47.080Z,94827.23
2018-09-30T18:14:15.676Z,94827.28
2018-09-30T18:16:47.456Z,94836.13
2018-09-30T18:19:15.928Z,94831.70
2018-09-30T18:21:44.434Z,94833.49
2018-09-30T18:24:13.047Z,94832.95
2018-09-30T18:26:41.508Z,94832.98
2018-09-30T18:29:09.954Z,94828.03
2018-09-30T18:31:38.496Z,94819.45
2018-09-30T18:34:06.895Z,94818.14
2018-09-30T18:36:35.307Z,94825.70
2018-09-30T18:39:04.680Z,94819.46
2018-09-30T18:41:33.098Z,94824.86
2018-09-30T18:44:01.524Z,94823.27
2018-09-30T18:46:29.976Z,94823.59
2018-09-30T18:48:58.380Z,94820.47
2018-09-30T18:51:26.823Z,94819.66
2018-09-30T18:53:55.288Z,94822.05
2018-09-30T18:56:23.760Z,94826.13
2018-09-30T18:58:52.164Z,94821.45
2018-09-30T19:01:20.591Z,94814.67
2018-09-30T19:03:49.100Z,94818.89
2018-09-30T19:06:17.760Z,94809.53
2018-09-30T19:08:46.260Z,94818.85
2018-09-30T19:11:14.798Z,94813.87
2018-09-30T19:13:43.227Z,94813.17
2018-09-30T19:16:11.787Z,94813.61
2018-09-30T19:18:40.168Z,94823.19
2018-09-30T19:21:08.641Z,94821.58
2018-09-30T19:23:37.075Z,94825.28
2018-09-30T19:26:05.514Z,94821.95
2018-09-30T19:28:34.120Z,94815.47
2018-09-30T19:31:02.560Z,94818.87
2018-09-30T19:33:30.960Z,94822.38
2018-09-30T19:35:59.431Z,94819.21
2018-09-30T19:38:27.924Z,94817.17
2018-09-30T19:40:56.277Z,94821.55
2018-09-30T19:43:24.692Z,94811.70
2018-09-30T19:45:53.176Z,94815.31
2018-09-30T19:48:21.749Z,94810.39
2018-09-30T19:50:50.096Z,94804.27
2018-09-30T19:53:18.555Z,94804.91
2018-09-30T19:55:46.960Z,94809.96
2018-09-30T19:58:15.451Z,94806.14
2018-09-30T20:00:43.871Z,94805.55
2018-09-30T20:03:12.364Z,94805.00
2018-09-30T20:05:47.738Z,94808.66
2018-09-30T20:08:16.331Z,94804.00
2018-09-30T20:10:44.617Z,94803.40
2018-09-30T20:13:13.084Z,94805.61
2018-09-30T20:15:41.576Z,94798.30
2018-09-30T20:18:09.996Z,94800.61
2018-09-30T20:20:38.481Z,94792.34
2018-09-30T20:23:06.912Z,94793.33
2018-09-30T20:25:35.320Z,94784.53
2018-09-30T20:28:03.751Z,94783.12
2018-09-30T20:30:32.160Z,94790.66
2018-09-30T20:33:00.580Z,94797.13
2018-09-30T20:35:28.979Z,94796.12
2018-09-30T20:37:57.556Z,94792.23
2018-09-30T20:40:26.052Z,94792.44
2018-09-30T20:42:54.451Z,94795.17
2018-09-30T20:45:22.902Z,94786.30
2018-09-30T20:47:51.324Z,94789.05
2018-09-30T20:50:19.751Z,94789.65
2018-09-30T20:52:48.156Z,94784.29
2018-09-30T20:55:16.581Z,94783.61
2018-09-30T20:57:45.035Z,94779.28
2018-09-30T21:00:13.605Z,94775.81
2018-09-30T21:02:41.975Z,94775.85
2018-09-30T21:05:23.793Z,94777.14
2018-09-30T21:07:52.288Z,94779.56
2018-09-30T21:10:20.841Z,94776.23
2018-09-30T21:12:49.261Z,94773.41
2018-09-30T21:15:17.608Z,94772.65
2018-09-30T21:17:46.032Z,94769.77
2018-09-30T21:20:14.705Z,94766.56
2018-09-30T21:22:43.116Z,94766.16
2018-09-30T21:25:11.544Z,94764.05
2018-09-30T21:27:39.952Z,94769.16
2018-09-30T21:30:08.436Z,94764.20
2018-09-30T21:32:36.884Z,94762.23
2018-09-30T21:35:05.267Z,94758.36
2018-09-30T21:37:33.732Z,94752.02
2018-09-30T21:40:02.359Z,94756.93
2018-09-30T21:42:30.704Z,94748.11
2018-09-30T21:44:59.087Z,94752.21
2018-09-30T21:47:27.445Z,94753.98
2018-09-30T21:49:55.896Z,94750.80
2018-09-30T21:52:24.300Z,94754.19
2018-09-30T21:54:52.756Z,94746.84
2018-09-30T21:57:21.221Z,94738.70
2018-09-30T21:59:49.669Z,94737.21
2018-09-30T22:02:18.080Z,94734.04
2018-09-30T22:04:46.484Z,94728.67
2018-09-30T22:07:14.888Z,94729.97
2018-09-30T22:09:43.324Z,94723.30
2018-09-30T22:12:11.726Z,94722.11
2018-09-30T22:14:40.066Z,94715.20
2018-09-30T22:17:08.472Z,94720.63
2018-09-30T22:19:36.827Z,94717.44
2018-09-30T22:22:05.240Z,94712.08
2018-09-30T22:24:33.622Z,94715.39
2018-09-30T22:27:02.027Z,94717.97
2018-09-30T22:29:30.332Z,94716.92
2018-09-30T22:31:58.720Z,94715.51
2018-09-30T22:34:27.104Z,94711.10
2018-09-30T22:36:55.644Z,94712.44
2018-09-30T22:39:24.042Z,94714.84
2018-09-30T22:41:52.519Z,94714.16
2018-09-30T22:44:20.981Z,94709.13
2018-09-30T22:46:49.360Z,94709.77
2018-09-30T22:49:17.745Z,94708.16
2018-09-30T22:51:46.068Z,94707.75
2018-09-30T22:54:14.397Z,94703.78
2018-09-30T22:56:42.741Z,94702.81
2018-09-30T22:59:11.110Z,94703.64
2018-09-30T23:01:39.509Z,94706.60
2018-09-30T23:04:07.853Z,94705.19
2018-09-30T23:06:36.281Z,94703.41
2018-09-30T23:09:06.076Z,94704.93
2018-09-30T23:11:34.545Z,94691.58
2018-09-30T23:14:02.864Z,94703.20
2018-09-30T23:16:31.301Z,94699.70
2018-09-30T23:18:59.687Z,94704.30
2018-09-30T23:21:28.237Z,94701.95
2018-09-30T23:23:56.548Z,94706.13
2018-09-30T23:26:24.902Z,94703.78
2018-09-30T23:28:53.327Z,94712.64
2018-09-30T23:31:21.673Z,94708.09
2018-09-30T23:33:50.240Z,94702.11
2018-09-30T23:36:18.584Z,94702.31
2018-09-30T23:38:47.068Z,94698.92
2018-09-30T23:41:15.406Z,94698.20
2018-09-30T23:43:43.747Z,94697.90
2018-09-30T23:46:12.126Z,94696.50
2018-09-30T23:48:40.537Z,94694.77
2018-09-30T23:51:08.889Z,94696.11
2018-09-30T23:56:20.475Z,94693.03
2018-09-30T23:58:49.180Z,94693.09
